Time;durP1;ratioP1;P1;durP2;ratioP2;P2;SDS_P1;SDS_P2;PMS_P1;PMS_P2;Temp;Humidity;BMP_temperature;BMP_pressure;BME280_temperature;BME280_humidity;BME280_pressure;Samples;Min_cycle;Max_cycle;Signal;HPM_P1;HPM_P2
2021/09/28 00:00:13;;;;;;;4.07;2.78;;;14.30;73.60;;;;;;5023510;28;20032;-65
2021/09/28 00:02:39;;;;;;;2.58;2.38;;;14.30;73.60;;;;;;5019239;28;20084;-65
2021/09/28 00:05:05;;;;;;;2.58;2.38;;;14.30;73.60;;;;;;5019820;28;20026;-65
2021/09/28 00:07:30;;;;;;;3.53;2.50;;;14.30;73.50;;;;;;5027090;28;20061;-65
2021/09/28 00:09:56;;;;;;;4.05;2.67;;;14.30;73.70;;;;;;5025162;28;20501;-65
2021/09/28 00:12:22;;;;;;;2.53;2.33;;;14.20;73.50;;;;;;5026849;28;20029;-65
2021/09/28 00:14:48;;;;;;;3.03;2.72;;;14.20;73.60;;;;;;5027059;28;20030;-65
2021/09/28 00:17:13;;;;;;;3.35;2.80;;;14.20;73.70;;;;;;5015070;28;20030;-65
2021/09/28 00:19:40;;;;;;;3.40;2.83;;;14.10;73.70;;;;;;5017048;28;20061;-65
2021/09/28 00:22:06;;;;;;;3.15;2.72;;;14.10;73.80;;;;;;5017159;28;20393;-65
2021/09/28 00:24:33;;;;;;;3.20;2.70;;;14.10;74.00;;;;;;5021485;28;20385;-65
2021/09/28 00:27:00;;;;;;;3.45;2.92;;;14.00;73.90;;;;;;5033402;28;20017;-65
2021/09/28 00:29:25;;;;;;;3.60;3.10;;;14.00;73.80;;;;;;5021956;28;20021;-65
2021/09/28 00:31:51;;;;;;;3.67;2.78;;;14.00;73.80;;;;;;5033669;28;20026;-65
2021/09/28 00:34:17;;;;;;;3.50;3.20;;;14.00;74.00;;;;;;5019476;28;20036;-65
2021/09/28 00:36:42;;;;;;;3.35;2.88;;;14.00;74.00;;;;;;5017122;28;20022;-65
2021/09/28 00:39:08;;;;;;;2.92;2.70;;;14.00;74.00;;;;;;5027259;28;20053;-65
2021/09/28 00:41:34;;;;;;;3.17;2.88;;;14.00;74.10;;;;;;5016345;28;20532;-65
2021/09/28 00:43:59;;;;;;;3.78;2.90;;;14.00;74.40;;;;;;5015407;28;20022;-65
2021/09/28 00:46:26;;;;;;;4.25;2.97;;;13.90;74.40;;;;;;5032612;28;20028;-65
2021/09/28 00:48:52;;;;;;;3.20;2.63;;;13.90;74.50;;;;;;5018990;28;20022;-65
2021/09/28 00:51:19;;;;;;;3.10;2.80;;;13.90;74.40;;;;;;5020742;28;20041;-65
2021/09/28 00:53:45;;;;;;;5.57;3.35;;;13.90;74.60;;;;;;5028524;28;20021;-65
2021/09/28 00:56:15;;;;;;;3.42;3.00;;;13.80;74.50;;;;;;5009318;28;20026;-65
2021/09/28 00:58:41;;;;;;;3.15;2.67;;;13.80;74.60;;;;;;5013056;28;20470;-65
2021/09/28 01:01:09;;;;;;;3.47;2.90;;;13.80;74.80;;;;;;5009794;28;20025;-65
2021/09/28 01:03:34;;;;;;;2.72;2.30;;;13.80;74.90;;;;;;5033105;28;20528;-65
2021/09/28 01:06:01;;;;;;;3.88;3.40;;;13.70;74.90;;;;;;5022031;28;20117;-65
2021/09/28 01:08:28;;;;;;;3.20;2.88;;;13.70;75.00;;;;;;5032758;28;20079;-65
2021/09/28 01:10:54;;;;;;;3.50;3.20;;;13.70;75.00;;;;;;5030731;28;20025;-65
2021/09/28 01:13:22;;;;;;;3.17;2.88;;;13.70;75.20;;;;;;5016946;28;20033;-65
2021/09/28 01:16:02;;;;;;;3.75;3.22;;;13.60;75.10;;;;;;5027420;28;20060;-65
2021/09/28 01:18:36;;;;;;;3.03;2.73;;;13.60;75.10;;;;;;5023683;28;20040;-65
2021/09/28 01:21:04;;;;;;;3.10;2.80;;;13.60;75.30;;;;;;5018382;28;20117;-65
2021/09/28 01:23:29;;;;;;;3.10;2.80;;;13.50;75.30;;;;;;5032545;28;20079;-65
2021/09/28 01:25:55;;;;;;;3.72;2.83;;;13.60;75.50;;;;;;5030789;28;20424;-65
2021/09/28 01:28:21;;;;;;;4.40;2.90;;;13.50;75.50;;;;;;5011867;28;20109;-65
2021/09/28 01:30:47;;;;;;;3.92;3.28;;;13.50;75.50;;;;;;5026300;28;20449;-65
2021/09/28 01:33:15;;;;;;;4.80;3.00;;;13.50;75.60;;;;;;5019320;28;20022;-65
2021/09/28 01:35:41;;;;;;;3.85;3.30;;;13.50;75.60;;;;;;5020971;28;20026;-65
2021/09/28 01:38:07;;;;;;;3.83;3.10;;;13.50;75.70;;;;;;5026125;28;20029;-65
2021/09/28 01:40:34;;;;;;;4.03;3.30;;;13.40;75.80;;;;;;5022762;28;20087;-65
2021/09/28 01:43:11;;;;;;;4.03;3.30;;;13.40;76.00;;;;;;5026168;28;20026;-65
2021/09/28 01:45:38;;;;;;;3.60;3.20;;;13.40;76.00;;;;;;5019666;28;20108;-65
2021/09/28 01:48:05;;;;;;;5.78;3.67;;;13.30;76.10;;;;;;5026152;28;20057;-65
2021/09/28 01:50:32;;;;;;;3.78;3.35;;;13.30;76.10;;;;;;5010296;28;20029;-65
2021/09/28 01:52:57;;;;;;;4.85;3.20;;;13.30;76.10;;;;;;5030446;28;20022;-65
2021/09/28 01:55:23;;;;;;;3.47;2.80;;;13.20;76.10;;;;;;5028453;28;20036;-65
2021/09/28 01:57:55;;;;;;;3.72;3.33;;;13.20;76.20;;;;;;5029582;28;20500;-65
2021/09/28 02:00:24;;;;;;;4.20;3.50;;;13.20;76.20;;;;;;5021330;28;20111;-65
2021/09/28 02:02:50;;;;;;;4.00;3.33;;;13.20;76.30;;;;;;5026041;28;20224;-65
2021/09/28 02:05:16;;;;;;;4.13;3.20;;;13.20;76.40;;;;;;5019980;28;20576;-65
2021/09/28 02:07:43;;;;;;;4.20;3.50;;;13.20;76.50;;;;;;5027986;28;20092;-65
2021/09/28 02:10:10;;;;;;;4.10;3.20;;;13.10;76.40;;;;;;5025557;28;20536;-65
2021/09/28 02:12:35;;;;;;;3.90;3.50;;;13.20;76.60;;;;;;5032075;28;20025;-65
2021/09/28 02:15:01;;;;;;;5.47;3.47;;;13.10;76.60;;;;;;5032233;28;20026;-65
2021/09/28 02:17:27;;;;;;;4.43;3.42;;;13.10;76.60;;;;;;5026498;28;20030;-65
2021/09/28 02:19:53;;;;;;;4.18;3.17;;;13.10;76.80;;;;;;5015503;28;20040;-65
2021/09/28 02:22:18;;;;;;;4.22;3.65;;;13.10;76.70;;;;;;5031944;28;20053;-65
2021/09/28 02:24:44;;;;;;;3.90;3.33;;;13.10;76.80;;;;;;5032108;28;20029;-65
2021/09/28 02:27:09;;;;;;;4.43;3.50;;;13.10;76.80;;;;;;5022564;28;20022;-65
2021/09/28 02:29:35;;;;;;;4.75;3.55;;;13.10;76.90;;;;;;5027855;28;20448;-65
2021/09/28 02:32:01;;;;;;;4.78;3.38;;;13.00;76.80;;;;;;5032261;28;20036;-65
2021/09/28 02:34:26;;;;;;;4.32;3.15;;;13.00;76.80;;;;;;5023473;28;20053;-65
2021/09/28 02:36:52;;;;;;;3.60;3.30;;;13.00;77.00;;;;;;5024241;28;20037;-65
2021/09/28 02:39:18;;;;;;;5.43;3.45;;;13.00;76.90;;;;;;5029098;28;20424;-65
2021/09/28 02:41:45;;;;;;;6.05;3.30;;;13.00;76.90;;;;;;5029893;28;20209;-65
2021/09/28 02:44:10;;;;;;;5.18;4.07;;;13.00;77.10;;;;;;5035541;28;20032;-65
2021/09/28 02:46:36;;;;;;;4.22;3.83;;;13.00;77.00;;;;;;5019938;28;20021;-65
2021/09/28 02:49:03;;;;;;;5.65;3.00;;;13.00;77.20;;;;;;5023127;28;20037;-65
2021/09/28 02:51:29;;;;;;;4.10;3.40;;;13.00;77.10;;;;;;5019025;28;20028;-65
2021/09/28 02:53:55;;;;;;;4.80;3.50;;;13.00;77.20;;;;;;5028233;28;20109;-65
2021/09/28 02:56:21;;;;;;;5.53;3.90;;;13.00;77.40;;;;;;5023003;28;20109;-65
2021/09/28 02:58:46;;;;;;;4.78;3.80;;;13.00;77.10;;;;;;5035208;28;20061;-65
2021/09/28 03:01:12;;;;;;;3.65;3.33;;;12.90;77.00;;;;;;5008139;28;20065;-65
2021/09/28 03:03:38;;;;;;;3.83;3.45;;;12.90;76.90;;;;;;5027747;28;20121;-65
2021/09/28 03:06:04;;;;;;;3.95;3.25;;;12.90;76.90;;;;;;5015053;28;20060;-65
2021/09/28 03:08:32;;;;;;;2.90;2.60;;;12.90;76.80;;;;;;5015928;28;20466;-65
2021/09/28 03:10:58;;;;;;;4.00;3.60;;;12.90;76.80;;;;;;5021224;28;20064;-65
2021/09/28 03:13:23;;;;;;;4.60;3.67;;;12.90;76.70;;;;;;5027389;28;20053;-65
2021/09/28 03:15:49;;;;;;;5.93;4.05;;;12.90;76.70;;;;;;5013395;28;20030;-65
2021/09/28 03:18:15;;;;;;;5.07;4.07;;;12.90;76.70;;;;;;5024487;28;20025;-65
2021/09/28 03:20:40;;;;;;;4.78;3.78;;;12.90;76.60;;;;;;5023260;28;20038;-65
2021/09/28 03:23:06;;;;;;;6.55;3.88;;;12.90;76.60;;;;;;5025797;28;20028;-65
2021/09/28 03:25:32;;;;;;;5.15;3.90;;;12.90;76.60;;;;;;5028302;28;20164;-62
2021/09/28 03:27:58;;;;;;;5.28;3.92;;;12.80;76.50;;;;;;5023772;28;20025;-62
2021/09/28 03:30:23;;;;;;;4.30;3.50;;;12.80;76.40;;;;;;5023072;28;20021;-62
2021/09/28 03:32:49;;;;;;;5.03;4.03;;;12.80;76.40;;;;;;5019378;28;20033;-62
2021/09/28 03:35:15;;;;;;;6.35;4.07;;;12.80;76.40;;;;;;5034338;28;20044;-62
2021/09/28 03:37:49;;;;;;;4.82;4.00;;;12.80;76.40;;;;;;5028906;28;20030;-62
2021/09/28 03:40:15;;;;;;;4.97;4.05;;;12.80;76.40;;;;;;5009547;28;20073;-62
2021/09/28 03:42:41;;;;;;;4.97;3.80;;;12.70;76.30;;;;;;5015083;28;20121;-62
2021/09/28 03:45:08;;;;;;;6.47;4.28;;;12.70;76.50;;;;;;5031508;28;20021;-62
2021/09/28 03:47:33;;;;;;;4.97;3.95;;;12.70;76.90;;;;;;5021893;28;20029;-62
2021/09/28 03:49:59;;;;;;;7.28;4.07;;;12.70;76.30;;;;;;5028107;28;20038;-62
2021/09/28 03:52:25;;;;;;;4.53;3.78;;;12.70;76.30;;;;;;5033996;28;20026;-62
2021/09/28 03:54:50;;;;;;;5.45;3.88;;;12.70;76.40;;;;;;5034040;28;20026;-62
2021/09/28 03:57:16;;;;;;;5.80;4.38;;;12.70;77.00;;;;;;5014067;28;20411;-62
2021/09/28 03:59:41;;;;;;;5.53;3.70;;;12.70;76.60;;;;;;5016987;28;20025;-62
2021/09/28 04:02:07;;;;;;;5.22;4.30;;;12.70;76.50;;;;;;5014321;28;20482;-62
2021/09/28 04:04:33;;;;;;;5.65;4.30;;;12.70;76.50;;;;;;5013839;28;20022;-62
2021/09/28 04:06:59;;;;;;;6.47;4.63;;;12.70;76.70;;;;;;5022138;28;20071;-62
2021/09/28 04:09:25;;;;;;;5.30;4.18;;;12.70;76.60;;;;;;5033146;28;20018;-62
2021/09/28 04:11:51;;;;;;;4.43;3.83;;;12.70;76.50;;;;;;5030422;28;20135;-62
2021/09/28 04:14:17;;;;;;;6.13;4.43;;;12.70;76.50;;;;;;5025879;28;20156;-62
2021/09/28 04:16:43;;;;;;;4.00;3.40;;;12.70;76.60;;;;;;5031309;28;20489;-62
2021/09/28 04:19:08;;;;;;;5.50;4.22;;;12.70;76.40;;;;;;5023820;28;20022;-62
2021/09/28 04:21:37;;;;;;;4.53;4.03;;;12.80;76.40;;;;;;5025717;28;20021;-62
2021/09/28 04:24:03;;;;;;;4.43;3.58;;;12.80;76.30;;;;;;5019918;28;20390;-62
2021/09/28 04:26:29;;;;;;;5.80;4.07;;;12.80;76.10;;;;;;5030436;28;20392;-62
2021/09/28 04:28:55;;;;;;;5.75;4.50;;;12.80;76.10;;;;;;5032924;28;20152;-62
2021/09/28 04:31:20;;;;;;;5.45;4.20;;;12.80;76.20;;;;;;5023902;28;20052;-62
2021/09/28 04:33:46;;;;;;;5.85;4.38;;;12.80;76.20;;;;;;5024100;28;20034;-62
2021/09/28 04:36:12;;;;;;;5.60;3.92;;;12.80;76.00;;;;;;5018058;28;20053;-62
2021/09/28 04:38:38;;;;;;;5.38;4.32;;;12.90;75.90;;;;;;5032596;28;20091;-62
2021/09/28 04:41:05;;;;;;;4.90;4.18;;;12.90;75.90;;;;;;5027051;28;20080;-62
2021/09/28 04:43:30;;;;;;;5.45;3.95;;;12.90;75.90;;;;;;5019341;28;20531;-62
2021/09/28 04:45:56;;;;;;;5.85;4.22;;;12.90;76.00;;;;;;5008110;28;20026;-62
2021/09/28 04:48:22;;;;;;;5.53;4.10;;;12.90;75.90;;;;;;5013091;28;20105;-62
2021/09/28 04:50:49;;;;;;;6.85;4.32;;;12.90;75.80;;;;;;5014163;28;20030;-62
2021/09/28 04:53:15;;;;;;;4.25;3.72;;;13.00;75.70;;;;;;5010898;28;20022;-62
2021/09/28 04:55:41;;;;;;;5.07;4.05;;;13.00;75.80;;;;;;5013443;28;20101;-62
2021/09/28 04:58:06;;;;;;;5.47;4.45;;;13.00;75.80;;;;;;5020793;28;20022;-62
2021/09/28 05:00:32;;;;;;;6.10;4.60;;;13.00;75.70;;;;;;5032919;28;20100;-62
2021/09/28 05:02:58;;;;;;;4.45;3.65;;;13.10;75.70;;;;;;5016945;28;20117;-62
2021/09/28 05:05:23;;;;;;;5.38;4.07;;;13.10;75.60;;;;;;5013512;28;20413;-62
2021/09/28 05:07:50;;;;;;;4.68;4.03;;;13.10;75.50;;;;;;5015389;28;20529;-62
2021/09/28 05:10:16;;;;;;;6.90;4.07;;;13.20;75.40;;;;;;5022061;28;20031;-62
2021/09/28 05:12:41;;;;;;;3.97;3.47;;;13.20;75.20;;;;;;5014837;28;20224;-62
2021/09/28 05:15:07;;;;;;;5.13;4.00;;;13.30;75.20;;;;;;5010066;28;20041;-62
2021/09/28 05:17:35;;;;;;;5.85;4.22;;;13.30;75.00;;;;;;5022116;28;20025;-62
2021/09/28 05:20:04;;;;;;;5.18;4.30;;;13.40;75.00;;;;;;5010608;28;20620;-62
2021/09/28 05:22:30;;;;;;;5.50;4.28;;;13.40;74.80;;;;;;5004904;28;20034;-62
2021/09/28 05:24:55;;;;;;;4.40;3.63;;;13.40;74.70;;;;;;5013622;28;20037;-62
2021/09/28 05:27:21;;;;;;;4.30;3.67;;;13.50;74.60;;;;;;5027424;28;20420;-62
2021/09/28 05:29:47;;;;;;;5.22;4.13;;;13.50;74.40;;;;;;5008949;28;20017;-63
2021/09/28 05:32:13;;;;;;;3.90;3.50;;;13.50;74.30;;;;;;5011089;28;20057;-62
2021/09/28 05:34:38;;;;;;;5.20;3.67;;;13.50;74.30;;;;;;5007460;28;20065;-62
2021/09/28 05:37:05;;;;;;;5.25;4.28;;;13.60;74.10;;;;;;5006441;28;20034;-62
2021/09/28 05:39:30;;;;;;;4.90;4.07;;;13.60;73.90;;;;;;5008174;28;20545;-62
2021/09/28 05:41:56;;;;;;;5.50;4.05;;;13.70;73.90;;;;;;5011364;28;20101;-62
2021/09/28 05:44:22;;;;;;;5.15;4.20;;;13.70;73.70;;;;;;5004686;28;20025;-62
2021/09/28 05:46:47;;;;;;;4.65;3.78;;;13.70;73.60;;;;;;5005936;28;20038;-62
2021/09/28 05:49:13;;;;;;;4.40;3.80;;;13.70;73.60;;;;;;5003430;28;20034;-62
2021/09/28 05:51:50;;;;;;;6.32;4.07;;;13.70;73.50;;;;;;5005798;28;20380;-63
2021/09/28 05:54:18;;;;;;;5.80;3.97;;;13.70;73.60;;;;;;5009640;28;20034;-62
2021/09/28 05:56:44;;;;;;;5.72;3.97;;;13.70;73.40;;;;;;5009261;28;20038;-62
2021/09/28 05:59:09;;;;;;;5.88;4.07;;;13.70;73.40;;;;;;5003517;28;20042;-62
2021/09/28 06:01:35;;;;;;;5.57;3.88;;;13.70;73.20;;;;;;5006480;28;20032;-62
2021/09/28 06:04:01;;;;;;;5.28;4.07;;;13.70;73.30;;;;;;5005409;28;20034;-62
2021/09/28 06:06:27;;;;;;;6.50;4.25;;;13.80;73.30;;;;;;5003475;28;20049;-62
2021/09/28 06:08:54;;;;;;;5.32;4.35;;;13.80;73.20;;;;;;5009860;28;20025;-62
2021/09/28 06:11:20;;;;;;;4.45;3.33;;;13.80;73.10;;;;;;5015621;28;20033;-59
2021/09/28 06:13:46;;;;;;;8.18;4.35;;;13.80;72.90;;;;;;5004480;28;20056;-59
2021/09/28 06:16:12;;;;;;;4.28;3.75;;;13.80;72.90;;;;;;5006925;28;20064;-59
2021/09/28 06:18:37;;;;;;;4.55;4.03;;;13.80;72.90;;;;;;5005161;28;20034;-59
2021/09/28 06:21:03;;;;;;;5.43;4.30;;;13.80;72.90;;;;;;5008950;28;20084;-60
2021/09/28 06:23:28;;;;;;;4.20;3.25;;;13.80;72.90;;;;;;5009853;28;20412;-58
2021/09/28 06:25:54;;;;;;;5.75;3.83;;;13.80;72.80;;;;;;5013759;28;20472;-59
2021/09/28 06:28:20;;;;;;;4.50;3.33;;;13.90;72.90;;;;;;5006276;28;20038;-59
2021/09/28 06:30:47;;;;;;;5.75;4.03;;;13.90;72.80;;;;;;5008175;28;20382;-58
2021/09/28 06:33:12;;;;;;;5.22;3.50;;;13.90;72.80;;;;;;5006443;28;20535;-59
2021/09/28 06:35:38;;;;;;;5.35;3.83;;;13.90;72.80;;;;;;5007188;28;20034;-57
2021/09/28 06:38:06;;;;;;;5.00;3.60;;;13.90;72.70;;;;;;5007783;28;20037;-60
2021/09/28 06:40:32;;;;;;;5.35;4.28;;;13.90;72.70;;;;;;5001499;28;20037;-57
2021/09/28 06:42:58;;;;;;;9.10;4.25;;;13.90;73.40;;;;;;5006369;28;20034;-60
2021/09/28 06:45:23;;;;;;;4.97;3.67;;;13.90;72.70;;;;;;5007693;28;20044;-59
2021/09/28 06:47:50;;;;;;;7.20;4.15;;;14.00;72.70;;;;;;5002820;28;20493;-58
2021/09/28 06:50:16;;;;;;;4.72;3.80;;;14.00;72.80;;;;;;5002584;28;20153;-60
2021/09/28 06:52:43;;;;;;;4.38;3.13;;;14.00;72.80;;;;;;5000448;28;20056;-59
2021/09/28 06:55:10;;;;;;;5.57;3.88;;;14.00;73.20;;;;;;5007753;28;20120;-57
2021/09/28 06:57:35;;;;;;;5.18;4.43;;;14.00;72.60;;;;;;5000083;28;20042;-60
2021/09/28 07:00:02;;;;;;;4.95;3.75;;;14.10;72.60;;;;;;5006630;28;20034;-58
2021/09/28 07:02:28;;;;;;;5.28;4.13;;;14.10;72.50;;;;;;4992802;28;20077;-59
2021/09/28 07:04:54;;;;;;;7.55;4.50;;;14.10;72.70;;;;;;4994015;28;20436;-60
2021/09/28 07:07:20;;;;;;;6.53;4.47;;;14.10;72.50;;;;;;5000492;28;20026;-60
2021/09/28 07:09:45;;;;;;;5.82;4.22;;;14.20;72.60;;;;;;4998309;28;20037;-59
2021/09/28 07:12:11;;;;;;;7.20;4.00;;;14.20;72.50;;;;;;4993122;28;20060;-60
2021/09/28 07:14:37;;;;;;;5.60;3.90;;;14.20;72.40;;;;;;4999673;28;20034;-57
2021/09/28 07:17:03;;;;;;;6.68;4.03;;;14.20;72.50;;;;;;4992613;28;20040;-60
2021/09/28 07:19:28;;;;;;;4.60;3.72;;;14.20;72.20;;;;;;4993703;28;20496;-60
2021/09/28 07:21:54;;;;;;;5.55;3.67;;;14.20;72.20;;;;;;5001527;28;20030;-58
2021/09/28 07:24:20;;;;;;;5.88;3.83;;;14.30;72.10;;;;;;4997134;28;20037;-59
2021/09/28 07:26:45;;;;;;;4.70;3.95;;;14.30;72.10;;;;;;5001030;28;20045;-61
2021/09/28 07:29:11;;;;;;;4.50;3.80;;;14.30;72.20;;;;;;5000161;28;21279;-60
2021/09/28 07:31:37;;;;;;;5.90;4.32;;;14.30;72.00;;;;;;4998558;28;20063;-62
2021/09/28 07:34:02;;;;;;;4.38;3.63;;;14.40;72.00;;;;;;4998419;28;20037;-61
2021/09/28 07:36:28;;;;;;;5.20;3.83;;;14.40;72.00;;;;;;4999533;28;20574;-61
2021/09/28 07:38:54;;;;;;;5.10;3.85;;;14.50;71.90;;;;;;5001204;28;20052;-60
2021/09/28 07:41:19;;;;;;;6.53;4.55;;;14.50;71.90;;;;;;5000444;28;20085;-62
2021/09/28 07:43:45;;;;;;;5.10;3.95;;;14.50;71.70;;;;;;5002415;28;20411;-59
2021/09/28 07:46:11;;;;;;;5.28;3.60;;;14.60;71.70;;;;;;5002239;28;20489;-57
2021/09/28 07:48:37;;;;;;;5.53;4.00;;;14.60;71.60;;;;;;5005932;28;20093;-59
2021/09/28 07:51:03;;;;;;;5.20;3.85;;;14.60;71.50;;;;;;4998019;28;20029;-58
2021/09/28 07:53:29;;;;;;;5.82;3.30;;;14.70;71.50;;;;;;4997834;28;20089;-59
2021/09/28 07:55:55;;;;;;;5.75;4.13;;;14.70;71.20;;;;;;4999481;28;20093;-58
2021/09/28 07:58:21;;;;;;;4.72;3.15;;;14.70;71.20;;;;;;5000151;28;20030;-61
2021/09/28 08:00:47;;;;;;;5.43;3.85;;;14.80;71.20;;;;;;5000261;28;20036;-58
2021/09/28 08:03:13;;;;;;;5.68;3.25;;;14.80;71.20;;;;;;4995849;28;20567;-59
2021/09/28 08:05:39;;;;;;;4.85;3.65;;;14.80;71.10;;;;;;5006324;28;20066;-58
2021/09/28 08:08:05;;;;;;;5.60;3.80;;;14.90;71.10;;;;;;4998104;28;20069;-59
2021/09/28 08:10:31;;;;;;;6.82;4.32;;;14.90;71.00;;;;;;5002681;28;20060;-58
2021/09/28 08:12:59;;;;;;;7.22;4.13;;;15.00;70.90;;;;;;4996851;28;20034;-59
2021/09/28 08:15:25;;;;;;;6.65;3.90;;;15.00;70.90;;;;;;4996532;28;20757;-60
2021/09/28 08:17:51;;;;;;;7.57;4.50;;;15.00;70.80;;;;;;4996369;28;20065;-59
2021/09/28 08:20:19;;;;;;;5.85;3.80;;;15.10;70.70;;;;;;4995738;28;20086;-57
2021/09/28 08:22:45;;;;;;;8.00;4.68;;;15.10;70.70;;;;;;4990468;28;20037;-58
2021/09/28 08:25:15;;;;;;;7.18;4.30;;;15.20;70.70;;;;;;4993238;28;20967;-57
2021/09/28 08:30:26;;;;;;;5.63;3.90;;;15.20;70.60;;;;;;5004114;28;20054;-58
2021/09/28 08:32:53;;;;;;;7.72;4.70;;;15.20;70.70;;;;;;4999100;28;20173;-59
2021/09/28 08:35:19;;;;;;;5.60;3.70;;;15.30;70.70;;;;;;4999818;28;20048;-57
2021/09/28 08:37:45;;;;;;;7.43;4.32;;;15.30;70.60;;;;;;5004923;28;20034;-57
2021/09/28 08:40:14;;;;;;;7.35;4.20;;;15.40;70.40;;;;;;4999715;28;20494;-59
2021/09/28 08:42:41;;;;;;;8.90;4.43;;;15.40;70.30;;;;;;4998260;28;20039;-59
2021/09/28 08:45:08;;;;;;;4.97;3.60;;;15.40;70.30;;;;;;4996968;28;20053;-58
2021/09/28 08:47:42;;;;;;;6.90;4.28;;;15.50;70.60;;;;;;4998676;28;20029;-58
2021/09/28 08:50:12;;;;;;;6.75;3.85;;;15.50;69.90;;;;;;4997698;28;22185;-58
2021/09/28 08:52:43;;;;;;;10.52;4.22;;;15.60;70.00;;;;;;4997117;28;20034;-58
2021/09/28 08:55:09;;;;;;;5.57;3.50;;;15.60;70.00;;;;;;4992385;28;20061;-58
2021/09/28 08:57:35;;;;;;;6.25;3.88;;;15.60;70.00;;;;;;4999535;28;20040;-57
2021/09/28 09:00:01;;;;;;;10.43;5.43;;;15.60;70.00;;;;;;4994789;28;20828;-59
2021/09/28 09:02:41;;;;;;;6.20;4.25;;;15.60;69.90;;;;;;4993780;28;20088;-60
2021/09/28 09:05:11;;;;;;;6.78;4.55;;;15.70;69.90;;;;;;4995923;28;20021;-61
2021/09/28 09:07:37;;;;;;;6.90;4.55;;;15.70;69.90;;;;;;4999157;28;20439;-63
2021/09/28 09:10:03;;;;;;;8.18;4.85;;;15.70;69.70;;;;;;4998798;28;20057;-61
2021/09/28 09:12:34;;;;;;;6.75;4.47;;;15.70;69.70;;;;;;5003048;28;20033;-59
2021/09/28 09:15:26;;;;;;;7.25;5.10;;;15.70;69.70;;;;;;4995380;28;20072;-60
2021/09/28 09:17:55;;;;;;;6.90;4.63;;;15.80;69.70;;;;;;4999435;28;20044;-61
2021/09/28 09:20:28;;;;;;;8.40;4.60;;;15.80;69.80;;;;;;4997907;28;20041;-58
2021/09/28 09:22:55;;;;;;;9.75;4.90;;;15.80;69.80;;;;;;4997645;28;20040;-62
2021/09/28 09:25:22;;;;;;;6.40;4.80;;;15.90;69.60;;;;;;5000196;28;20101;-60
2021/09/28 09:27:48;;;;;;;6.68;4.35;;;15.90;69.60;;;;;;5005924;28;20737;-59
2021/09/28 09:30:18;;;;;;;7.38;4.68;;;16.00;69.50;;;;;;5002927;28;20041;-60
2021/09/28 09:32:59;;;;;;;8.52;4.70;;;16.00;69.60;;;;;;5002859;28;20033;-58
2021/09/28 09:35:32;;;;;;;6.05;4.55;;;16.10;69.50;;;;;;4999643;28;20038;-58
2021/09/28 09:38:12;;;;;;;6.45;4.45;;;16.10;69.40;;;;;;5000714;28;20034;-57
2021/09/28 09:40:42;;;;;;;7.05;4.75;;;16.10;69.30;;;;;;5001312;28;20035;-58
2021/09/28 09:43:10;;;;;;;7.75;4.57;;;16.10;69.40;;;;;;5001839;28;20089;-58
2021/09/28 09:45:35;;;;;;;10.45;5.25;;;16.10;69.20;;;;;;5002039;28;20048;-60
2021/09/28 09:48:32;;;;;;;5.72;4.00;;;16.10;69.10;;;;;;4997289;28;20573;-58
2021/09/28 09:51:05;;;;;;;6.40;4.70;;;16.10;69.10;;;;;;4994119;28;20128;-60
2021/09/28 09:53:31;;;;;;;7.53;4.60;;;16.10;69.10;;;;;;5001507;28;20022;-60
2021/09/28 09:55:58;;;;;;;7.15;4.25;;;16.10;69.10;;;;;;5001474;28;20030;-59
2021/09/28 09:58:24;;;;;;;8.65;4.38;;;16.10;69.10;;;;;;4998503;28;20033;-60
2021/09/28 10:00:53;;;;;;;7.55;3.90;;;16.10;69.00;;;;;;5001239;28;20041;-60
2021/09/28 10:03:20;;;;;;;7.80;4.50;;;16.10;68.90;;;;;;4998495;28;22713;-60
2021/09/28 10:05:46;;;;;;;8.23;4.40;;;16.10;69.10;;;;;;4996088;28;20556;-60
2021/09/28 10:08:14;;;;;;;9.52;4.63;;;16.10;69.20;;;;;;4995909;28;20030;-61
2021/09/28 10:10:43;;;;;;;10.82;4.40;;;16.10;69.30;;;;;;5001271;28;20031;-61
2021/09/28 10:13:45;;;;;;;7.75;4.38;;;16.10;69.10;;;;;;5002684;28;20506;-61
2021/09/28 10:16:37;;;;;;;11.15;4.68;;;16.10;69.00;;;;;;5002970;28;20521;-61
2021/09/28 10:19:36;;;;;;;9.90;4.72;;;16.00;69.00;;;;;;5006562;28;20103;-61
2021/09/28 10:22:03;;;;;;;7.43;4.20;;;16.00;69.10;;;;;;4999833;28;20033;-60
2021/09/28 10:24:31;;;;;;;8.27;4.72;;;15.90;69.10;;;;;;4999844;28;20044;-61
2021/09/28 10:27:00;;;;;;;8.40;4.68;;;15.90;69.20;;;;;;5002117;28;20244;-61
2021/09/28 10:29:44;;;;;;;9.13;4.80;;;15.80;69.30;;;;;;4999364;28;20650;-60
2021/09/28 10:32:22;;;;;;;9.63;5.18;;;15.80;69.40;;;;;;5005364;28;20034;-61
2021/09/28 10:35:06;;;;;;;11.05;5.30;;;15.70;69.60;;;;;;4999933;28;20044;-61
2021/09/28 10:37:49;;;;;;;9.63;4.85;;;15.70;69.40;;;;;;5004852;28;20116;-60
2021/09/28 10:40:15;;;;;;;7.63;4.70;;;15.60;69.50;;;;;;5003868;28;20057;-60
2021/09/28 10:42:59;;;;;;;8.15;4.82;;;15.70;69.70;;;;;;5001498;28;20682;-60
2021/09/28 10:45:27;;;;;;;6.93;4.10;;;15.60;69.70;;;;;;4997797;28;20030;-60
2021/09/28 10:47:54;;;;;;;11.02;4.60;;;15.60;69.90;;;;;;4998986;28;20057;-60
2021/09/28 10:50:31;;;;;;;11.52;4.80;;;15.60;69.90;;;;;;4996600;28;21305;-60
2021/09/28 10:53:00;;;;;;;7.75;4.55;;;15.60;70.30;;;;;;5005457;28;20393;-60
2021/09/28 10:55:59;;;;;;;9.15;4.30;;;15.50;70.70;;;;;;5000318;28;20117;-59
2021/09/28 10:58:27;;;;;;;8.48;3.92;;;15.60;70.00;;;;;;4996087;28;20052;-60
2021/09/28 11:00:55;;;;;;;8.07;4.30;;;15.60;70.10;;;;;;5009326;28;20030;-60
2021/09/28 11:03:55;;;;;;;8.50;4.00;;;15.60;70.00;;;;;;5004229;28;20160;-59
2021/09/28 11:06:43;;;;;;;6.40;4.13;;;15.60;69.90;;;;;;4997448;28;20029;-60
2021/09/28 11:09:09;;;;;;;10.35;4.70;;;15.60;69.90;;;;;;5001161;28;20117;-61
2021/09/28 11:11:35;;;;;;;9.48;4.03;;;15.60;69.80;;;;;;5007380;28;20565;-60
2021/09/28 11:14:03;;;;;;;8.40;3.78;;;15.60;69.80;;;;;;5003009;28;20068;-61
2021/09/28 11:16:37;;;;;;;7.13;4.15;;;15.60;69.80;;;;;;5002995;28;20056;-61
2021/09/28 11:19:03;;;;;;;7.82;4.30;;;15.70;69.70;;;;;;4994929;28;20117;-60
2021/09/28 11:21:29;;;;;;;7.95;4.03;;;15.80;69.70;;;;;;4997070;28;20121;-59
2021/09/28 11:23:55;;;;;;;12.25;4.63;;;15.80;69.60;;;;;;4999018;28;20121;-60
2021/09/28 11:26:32;;;;;;;6.32;3.97;;;15.90;69.40;;;;;;4996625;28;20516;-60
2021/09/28 11:28:59;;;;;;;10.85;4.30;;;16.00;69.40;;;;;;5000838;28;20034;-60
2021/09/28 11:31:31;;;;;;;13.70;4.20;;;16.00;69.10;;;;;;4993397;28;20038;-59
2021/09/28 11:39:38;;;;;;;7.22;3.70;;;16.30;68.10;;;;;;5029793;28;22037;-51
2021/09/28 11:42:05;;;;;;;10.18;3.97;;;16.30;67.90;;;;;;5031745;28;20044;-54
2021/09/28 11:44:40;;;;;;;6.10;3.78;;;16.30;67.70;;;;;;5026274;28;20029;-55
2021/09/28 11:47:24;;;;;;;8.65;4.00;;;16.30;67.50;;;;;;5022434;28;20163;-52
2021/09/28 11:50:00;;;;;;;8.20;3.50;;;16.30;67.30;;;;;;5029479;28;20556;-55
2021/09/28 11:52:26;;;;;;;11.68;4.00;;;16.30;67.40;;;;;;5032579;28;20029;-55
2021/09/28 11:54:52;;;;;;;9.88;3.50;;;16.20;67.40;;;;;;5026618;28;20187;-52
2021/09/28 11:57:19;;;;;;;7.88;3.63;;;16.20;67.40;;;;;;5027658;28;20033;-53
2021/09/28 11:59:45;;;;;;;6.97;3.42;;;16.20;67.30;;;;;;5030212;28;20036;-54
2021/09/28 12:02:13;;;;;;;11.32;3.60;;;16.20;67.40;;;;;;5016354;28;20030;-54
2021/09/28 12:05:26;;;;;;;6.90;3.15;;;16.20;67.50;;;;;;5015029;28;20036;-52
2021/09/28 12:10:16;;;;;;;8.77;3.25;;;16.10;67.50;;;;;;5035758;28;20617;-53
2021/09/28 12:12:41;;;;;;;8.77;3.70;;;16.00;67.90;;;;;;5033893;28;20033;-52
2021/09/28 12:15:09;;;;;;;10.88;3.88;;;16.00;68.20;;;;;;5035701;28;20045;-55
2021/09/28 12:17:46;;;;;;;14.30;4.18;;;15.90;69.00;;;;;;5029765;28;20048;-54
2021/09/28 12:20:14;;;;;;;9.65;4.65;;;15.80;69.30;;;;;;5030986;28;20056;-52
2021/09/28 12:22:47;;;;;;;11.50;4.18;;;15.60;69.80;;;;;;5026411;28;20122;-52
2021/09/28 12:25:26;;;;;;;10.70;4.05;;;15.50;70.30;;;;;;5027901;28;20039;-53
2021/09/28 12:28:01;;;;;;;7.65;3.92;;;15.40;70.60;;;;;;5027709;28;20820;-54
2021/09/28 12:30:34;;;;;;;9.00;3.90;;;15.30;71.00;;;;;;5027965;28;20056;-54
2021/09/28 12:33:00;;;;;;;13.00;3.47;;;15.30;71.30;;;;;;5030610;28;20048;-54
2021/09/28 12:35:32;;;;;;;13.52;3.65;;;15.20;71.50;;;;;;5028719;28;20029;-53
2021/09/28 12:38:01;;;;;;;8.57;2.95;;;15.20;71.60;;;;;;5025386;28;20041;-55
2021/09/28 12:40:38;;;;;;;9.10;3.20;;;15.20;71.60;;;;;;5025481;28;20087;-54
2021/09/28 12:43:07;;;;;;;9.05;3.05;;;15.10;71.30;;;;;;5022922;28;20120;-54
2021/09/28 12:45:52;;;;;;;7.53;3.00;;;15.10;71.10;;;;;;5031468;28;20484;-54
2021/09/28 12:48:25;;;;;;;8.73;2.70;;;15.10;70.60;;;;;;5013201;28;20838;-51
2021/09/28 12:51:01;;;;;;;11.90;3.95;;;15.20;70.70;;;;;;4996381;28;20034;-52
2021/09/28 12:53:28;;;;;;;10.88;3.67;;;15.20;70.60;;;;;;5007147;28;20060;-55
2021/09/28 12:55:55;;;;;;;4.63;2.53;;;15.20;70.60;;;;;;5013700;28;20034;-53
2021/09/28 12:58:20;;;;;;;9.93;3.10;;;15.20;71.10;;;;;;5013192;28;20119;-55
2021/09/28 13:00:46;;;;;;;10.35;3.22;;;15.30;70.50;;;;;;5008271;28;20469;-55